sensor_id;sensor_type;location;lat;lon;timestamp;P1;durP1;ratioP1;P2;durP2;ratioP2
14276;SDS011;7222;57.346;12.150;2022-11-21T00:00:30;0.73;;;0.73;;
14276;SDS011;7222;57.346;12.150;2022-11-21T00:02:58;0.90;;;0.90;;
14276;SDS011;7222;57.346;12.150;2022-11-21T00:05:26;0.87;;;0.83;;
14276;SDS011;7222;57.346;12.150;2022-11-21T00:07:55;0.90;;;0.90;;
14276;SDS011;7222;57.346;12.150;2022-11-21T00:10:23;0.60;;;0.60;;
14276;SDS011;7222;57.346;12.150;2022-11-21T00:12:52;0.80;;;0.60;;
14276;SDS011;7222;57.346;12.150;2022-11-21T00:15:20;0.70;;;0.70;;
14276;SDS011;7222;57.346;12.150;2022-11-21T00:17:47;0.70;;;0.70;;
14276;SDS011;7222;57.346;12.150;2022-11-21T00:20:14;0.90;;;0.90;;
14276;SDS011;7222;57.346;12.150;2022-11-21T00:22:42;0.60;;;0.60;;
14276;SDS011;7222;57.346;12.150;2022-11-21T00:25:10;0.63;;;0.63;;
14276;SDS011;7222;57.346;12.150;2022-11-21T00:27:38;0.77;;;0.77;;
14276;SDS011;7222;57.346;12.150;2022-11-21T00:30:06;0.97;;;0.80;;
14276;SDS011;7222;57.346;12.150;2022-11-21T00:32:35;0.60;;;0.60;;
14276;SDS011;7222;57.346;12.150;2022-11-21T00:35:02;0.60;;;0.60;;
14276;SDS011;7222;57.346;12.150;2022-11-21T00:37:30;0.80;;;0.80;;
14276;SDS011;7222;57.346;12.150;2022-11-21T00:39:58;0.77;;;0.77;;
14276;SDS011;7222;57.346;12.150;2022-11-21T00:42:26;0.60;;;0.60;;
14276;SDS011;7222;57.346;12.150;2022-11-21T00:44:54;0.80;;;0.80;;
14276;SDS011;7222;57.346;12.150;2022-11-21T00:47:21;0.83;;;0.70;;
14276;SDS011;7222;57.346;12.150;2022-11-21T00:49:48;0.40;;;0.40;;
14276;SDS011;7222;57.346;12.150;2022-11-21T00:52:15;0.70;;;0.50;;
14276;SDS011;7222;57.346;12.150;2022-11-21T00:54:42;0.77;;;0.73;;
14276;SDS011;7222;57.346;12.150;2022-11-21T00:57:09;0.80;;;0.70;;
14276;SDS011;7222;57.346;12.150;2022-11-21T00:59:37;1.17;;;0.77;;
14276;SDS011;7222;57.346;12.150;2022-11-21T01:02:05;0.70;;;0.70;;
14276;SDS011;7222;57.346;12.150;2022-11-21T01:04:32;0.87;;;0.87;;
14276;SDS011;7222;57.346;12.150;2022-11-21T01:07:00;0.60;;;0.60;;
14276;SDS011;7222;57.346;12.150;2022-11-21T01:09:26;0.60;;;0.60;;
14276;SDS011;7222;57.346;12.150;2022-11-21T01:11:54;1.33;;;0.50;;
14276;SDS011;7222;57.346;12.150;2022-11-21T01:14:21;0.57;;;0.57;;
14276;SDS011;7222;57.346;12.150;2022-11-21T01:16:49;1.10;;;0.60;;
14276;SDS011;7222;57.346;12.150;2022-11-21T01:19:16;0.50;;;0.50;;
14276;SDS011;7222;57.346;12.150;2022-11-21T01:21:44;0.50;;;0.50;;
14276;SDS011;7222;57.346;12.150;2022-11-21T01:24:11;0.47;;;0.47;;
14276;SDS011;7222;57.346;12.150;2022-11-21T01:26:38;0.50;;;0.50;;
14276;SDS011;7222;57.346;12.150;2022-11-21T01:29:05;0.67;;;0.67;;
14276;SDS011;7222;57.346;12.150;2022-11-21T01:31:33;0.70;;;0.50;;
14276;SDS011;7222;57.346;12.150;2022-11-21T01:34:01;0.90;;;0.43;;
14276;SDS011;7222;57.346;12.150;2022-11-21T01:36:29;1.43;;;0.73;;
14276;SDS011;7222;57.346;12.150;2022-11-21T01:38:57;0.50;;;0.50;;
14276;SDS011;7222;57.346;12.150;2022-11-21T01:41:26;1.47;;;0.70;;
14276;SDS011;7222;57.346;12.150;2022-11-21T01:43:55;0.50;;;0.50;;
14276;SDS011;7222;57.346;12.150;2022-11-21T01:46:22;0.50;;;0.50;;
14276;SDS011;7222;57.346;12.150;2022-11-21T01:48:51;0.80;;;0.67;;
14276;SDS011;7222;57.346;12.150;2022-11-21T01:51:24;0.47;;;0.47;;
14276;SDS011;7222;57.346;12.150;2022-11-21T01:53:57;0.73;;;0.50;;
14276;SDS011;7222;57.346;12.150;2022-11-21T01:56:31;0.40;;;0.40;;
14276;SDS011;7222;57.346;12.150;2022-11-21T01:59:03;0.60;;;0.60;;
14276;SDS011;7222;57.346;12.150;2022-11-21T02:01:33;0.93;;;0.60;;
14276;SDS011;7222;57.346;12.150;2022-11-21T02:04:01;0.60;;;0.60;;
14276;SDS011;7222;57.346;12.150;2022-11-21T02:06:31;0.60;;;0.60;;
14276;SDS011;7222;57.346;12.150;2022-11-21T02:09:01;0.57;;;0.57;;
14276;SDS011;7222;57.346;12.150;2022-11-21T02:11:31;1.07;;;0.60;;
14276;SDS011;7222;57.346;12.150;2022-11-21T02:14:02;0.50;;;0.50;;
14276;SDS011;7222;57.346;12.150;2022-11-21T02:16:29;0.93;;;0.60;;
14276;SDS011;7222;57.346;12.150;2022-11-21T02:18:56;0.50;;;0.50;;
14276;SDS011;7222;57.346;12.150;2022-11-21T02:21:26;0.40;;;0.40;;
14276;SDS011;7222;57.346;12.150;2022-11-21T02:24:03;2.13;;;0.87;;
14276;SDS011;7222;57.346;12.150;2022-11-21T02:26:38;0.50;;;0.50;;
14276;SDS011;7222;57.346;12.150;2022-11-21T02:29:06;0.70;;;0.70;;
14276;SDS011;7222;57.346;12.150;2022-11-21T02:31:34;0.50;;;0.50;;
14276;SDS011;7222;57.346;12.150;2022-11-21T02:34:01;0.70;;;0.70;;
14276;SDS011;7222;57.346;12.150;2022-11-21T02:36:36;0.50;;;0.50;;
14276;SDS011;7222;57.346;12.150;2022-11-21T02:39:06;0.40;;;0.40;;
14276;SDS011;7222;57.346;12.150;2022-11-21T02:41:36;0.50;;;0.50;;
14276;SDS011;7222;57.346;12.150;2022-11-21T02:44:11;0.50;;;0.50;;
14276;SDS011;7222;57.346;12.150;2022-11-21T02:46:46;1.00;;;0.70;;
14276;SDS011;7222;57.346;12.150;2022-11-21T02:49:15;0.70;;;0.50;;
14276;SDS011;7222;57.346;12.150;2022-11-21T02:51:51;0.90;;;0.57;;
14276;SDS011;7222;57.346;12.150;2022-11-21T02:54:18;0.40;;;0.40;;
14276;SDS011;7222;57.346;12.150;2022-11-21T02:56:46;0.50;;;0.50;;
14276;SDS011;7222;57.346;12.150;2022-11-21T02:59:13;0.57;;;0.57;;
14276;SDS011;7222;57.346;12.150;2022-11-21T03:01:40;1.43;;;0.50;;
14276;SDS011;7222;57.346;12.150;2022-11-21T03:04:07;0.50;;;0.50;;
14276;SDS011;7222;57.346;12.150;2022-11-21T03:06:34;0.40;;;0.40;;
14276;SDS011;7222;57.346;12.150;2022-11-21T03:09:02;0.90;;;0.90;;
14276;SDS011;7222;57.346;12.150;2022-11-21T03:11:29;0.37;;;0.37;;
14276;SDS011;7222;57.346;12.150;2022-11-21T03:13:57;0.53;;;0.53;;
14276;SDS011;7222;57.346;12.150;2022-11-21T03:16:24;0.50;;;0.50;;
14276;SDS011;7222;57.346;12.150;2022-11-21T03:18:51;0.70;;;0.63;;
14276;SDS011;7222;57.346;12.150;2022-11-21T03:21:18;0.67;;;0.67;;
14276;SDS011;7222;57.346;12.150;2022-11-21T03:23:45;0.57;;;0.57;;
14276;SDS011;7222;57.346;12.150;2022-11-21T03:26:12;0.60;;;0.50;;
14276;SDS011;7222;57.346;12.150;2022-11-21T03:28:40;0.63;;;0.63;;
14276;SDS011;7222;57.346;12.150;2022-11-21T03:31:08;0.50;;;0.50;;
14276;SDS011;7222;57.346;12.150;2022-11-21T03:33:36;0.73;;;0.70;;
14276;SDS011;7222;57.346;12.150;2022-11-21T03:36:03;0.80;;;0.77;;
14276;SDS011;7222;57.346;12.150;2022-11-21T03:38:30;0.50;;;0.50;;
14276;SDS011;7222;57.346;12.150;2022-11-21T03:41:01;0.80;;;0.77;;
14276;SDS011;7222;57.346;12.150;2022-11-21T03:43:30;0.60;;;0.60;;
14276;SDS011;7222;57.346;12.150;2022-11-21T03:45:58;0.70;;;0.70;;
14276;SDS011;7222;57.346;12.150;2022-11-21T03:48:26;0.83;;;0.83;;
14276;SDS011;7222;57.346;12.150;2022-11-21T03:50:53;0.60;;;0.60;;
14276;SDS011;7222;57.346;12.150;2022-11-21T03:53:20;0.80;;;0.80;;
14276;SDS011;7222;57.346;12.150;2022-11-21T03:55:47;0.63;;;0.60;;
14276;SDS011;7222;57.346;12.150;2022-11-21T03:58:14;0.77;;;0.77;;
14276;SDS011;7222;57.346;12.150;2022-11-21T04:00:41;0.70;;;0.70;;
14276;SDS011;7222;57.346;12.150;2022-11-21T04:03:08;0.80;;;0.80;;
14276;SDS011;7222;57.346;12.150;2022-11-21T04:05:37;0.80;;;0.77;;
14276;SDS011;7222;57.346;12.150;2022-11-21T04:08:04;1.00;;;0.90;;
14276;SDS011;7222;57.346;12.150;2022-11-21T04:10:31;1.30;;;0.80;;
14276;SDS011;7222;57.346;12.150;2022-11-21T04:12:58;0.70;;;0.70;;
14276;SDS011;7222;57.346;12.150;2022-11-21T04:15:25;0.60;;;0.60;;
14276;SDS011;7222;57.346;12.150;2022-11-21T04:17:52;0.60;;;0.60;;
14276;SDS011;7222;57.346;12.150;2022-11-21T04:20:19;1.27;;;0.80;;
14276;SDS011;7222;57.346;12.150;2022-11-21T04:22:47;0.60;;;0.60;;
14276;SDS011;7222;57.346;12.150;2022-11-21T04:25:15;0.70;;;0.70;;
14276;SDS011;7222;57.346;12.150;2022-11-21T04:27:42;0.77;;;0.70;;
14276;SDS011;7222;57.346;12.150;2022-11-21T04:30:10;0.70;;;0.70;;
14276;SDS011;7222;57.346;12.150;2022-11-21T04:32:37;1.77;;;1.10;;
14276;SDS011;7222;57.346;12.150;2022-11-21T04:35:04;0.80;;;0.80;;
14276;SDS011;7222;57.346;12.150;2022-11-21T04:37:32;0.80;;;0.80;;
14276;SDS011;7222;57.346;12.150;2022-11-21T04:40:00;0.70;;;0.70;;
14276;SDS011;7222;57.346;12.150;2022-11-21T04:42:27;1.37;;;0.80;;
14276;SDS011;7222;57.346;12.150;2022-11-21T04:44:54;0.87;;;0.80;;
14276;SDS011;7222;57.346;12.150;2022-11-21T04:47:21;0.80;;;0.80;;
14276;SDS011;7222;57.346;12.150;2022-11-21T04:49:48;0.73;;;0.73;;
14276;SDS011;7222;57.346;12.150;2022-11-21T04:52:15;1.40;;;0.77;;
14276;SDS011;7222;57.346;12.150;2022-11-21T04:54:43;1.50;;;1.00;;
14276;SDS011;7222;57.346;12.150;2022-11-21T04:57:12;0.90;;;0.90;;
14276;SDS011;7222;57.346;12.150;2022-11-21T04:59:39;0.70;;;0.70;;
14276;SDS011;7222;57.346;12.150;2022-11-21T05:02:06;0.90;;;0.90;;
14276;SDS011;7222;57.346;12.150;2022-11-21T05:04:33;0.90;;;0.90;;
14276;SDS011;7222;57.346;12.150;2022-11-21T05:07:00;0.90;;;0.90;;
14276;SDS011;7222;57.346;12.150;2022-11-21T05:09:27;0.83;;;0.80;;
14276;SDS011;7222;57.346;12.150;2022-11-21T05:11:54;1.20;;;1.10;;
14276;SDS011;7222;57.346;12.150;2022-11-21T05:14:40;1.17;;;1.07;;
14276;SDS011;7222;57.346;12.150;2022-11-21T05:17:07;1.10;;;1.00;;
14276;SDS011;7222;57.346;12.150;2022-11-21T05:19:34;1.17;;;1.00;;
14276;SDS011;7222;57.346;12.150;2022-11-21T05:22:01;1.00;;;0.97;;
14276;SDS011;7222;57.346;12.150;2022-11-21T05:24:28;0.97;;;0.90;;
14276;SDS011;7222;57.346;12.150;2022-11-21T05:26:55;0.80;;;0.80;;
14276;SDS011;7222;57.346;12.150;2022-11-21T05:29:23;1.27;;;1.03;;
14276;SDS011;7222;57.346;12.150;2022-11-21T05:31:51;1.03;;;1.00;;
14276;SDS011;7222;57.346;12.150;2022-11-21T05:34:18;1.70;;;1.60;;
14276;SDS011;7222;57.346;12.150;2022-11-21T05:36:45;1.20;;;1.10;;
14276;SDS011;7222;57.346;12.150;2022-11-21T05:39:12;1.37;;;1.20;;
14276;SDS011;7222;57.346;12.150;2022-11-21T05:41:40;1.60;;;1.50;;
14276;SDS011;7222;57.346;12.150;2022-11-21T05:44:07;1.30;;;1.20;;
14276;SDS011;7222;57.346;12.150;2022-11-21T05:46:33;2.40;;;1.50;;
14276;SDS011;7222;57.346;12.150;2022-11-21T05:49:01;2.47;;;1.93;;
14276;SDS011;7222;57.346;12.150;2022-11-21T05:51:28;2.73;;;2.00;;
14276;SDS011;7222;57.346;12.150;2022-11-21T05:53:55;2.40;;;1.40;;
14276;SDS011;7222;57.346;12.150;2022-11-21T05:56:22;1.23;;;1.13;;
14276;SDS011;7222;57.346;12.150;2022-11-21T05:58:49;1.33;;;1.23;;
14276;SDS011;7222;57.346;12.150;2022-11-21T06:01:16;1.37;;;1.20;;
14276;SDS011;7222;57.346;12.150;2022-11-21T06:04:05;1.17;;;1.00;;
14276;SDS011;7222;57.346;12.150;2022-11-21T06:06:32;1.17;;;1.07;;
14276;SDS011;7222;57.346;12.150;2022-11-21T06:08:59;1.27;;;1.17;;
14276;SDS011;7222;57.346;12.150;2022-11-21T06:11:26;0.90;;;0.90;;
14276;SDS011;7222;57.346;12.150;2022-11-21T06:13:53;1.03;;;1.03;;
14276;SDS011;7222;57.346;12.150;2022-11-21T06:16:20;2.87;;;1.20;;
14276;SDS011;7222;57.346;12.150;2022-11-21T06:18:48;0.90;;;0.90;;
14276;SDS011;7222;57.346;12.150;2022-11-21T06:21:18;1.17;;;1.07;;
14276;SDS011;7222;57.346;12.150;2022-11-21T06:23:46;1.33;;;1.23;;
14276;SDS011;7222;57.346;12.150;2022-11-21T06:26:17;1.03;;;1.03;;
14276;SDS011;7222;57.346;12.150;2022-11-21T06:28:45;1.20;;;1.10;;
14276;SDS011;7222;57.346;12.150;2022-11-21T06:31:14;0.97;;;0.97;;
14276;SDS011;7222;57.346;12.150;2022-11-21T06:33:43;0.90;;;0.90;;
14276;SDS011;7222;57.346;12.150;2022-11-21T06:36:11;1.40;;;1.30;;
14276;SDS011;7222;57.346;12.150;2022-11-21T06:38:41;1.13;;;1.03;;
14276;SDS011;7222;57.346;12.150;2022-11-21T06:41:09;0.80;;;0.80;;
14276;SDS011;7222;57.346;12.150;2022-11-21T06:43:38;2.90;;;1.13;;
14276;SDS011;7222;57.346;12.150;2022-11-21T06:46:05;1.27;;;1.17;;
14276;SDS011;7222;57.346;12.150;2022-11-21T06:48:33;1.20;;;1.10;;
14276;SDS011;7222;57.346;12.150;2022-11-21T06:51:02;1.17;;;1.00;;
14276;SDS011;7222;57.346;12.150;2022-11-21T06:53:30;1.30;;;1.20;;
14276;SDS011;7222;57.346;12.150;2022-11-21T06:55:59;0.83;;;0.83;;
14276;SDS011;7222;57.346;12.150;2022-11-21T06:58:27;1.27;;;1.10;;
14276;SDS011;7222;57.346;12.150;2022-11-21T07:00:54;1.27;;;1.17;;
14276;SDS011;7222;57.346;12.150;2022-11-21T07:03:21;1.07;;;0.90;;
14276;SDS011;7222;57.346;12.150;2022-11-21T07:05:49;1.37;;;1.10;;
14276;SDS011;7222;57.346;12.150;2022-11-21T07:08:16;1.87;;;1.17;;
14276;SDS011;7222;57.346;12.150;2022-11-21T07:10:43;1.13;;;1.03;;
14276;SDS011;7222;57.346;12.150;2022-11-21T07:13:12;1.20;;;1.10;;
14276;SDS011;7222;57.346;12.150;2022-11-21T07:15:48;1.37;;;1.20;;
14276;SDS011;7222;57.346;12.150;2022-11-21T07:18:16;2.33;;;1.40;;
14276;SDS011;7222;57.346;12.150;2022-11-21T07:20:44;1.93;;;1.50;;
14276;SDS011;7222;57.346;12.150;2022-11-21T07:23:11;1.83;;;1.40;;
14276;SDS011;7222;57.346;12.150;2022-11-21T07:25:39;1.37;;;1.00;;
14276;SDS011;7222;57.346;12.150;2022-11-21T07:28:07;1.60;;;1.50;;
14276;SDS011;7222;57.346;12.150;2022-11-21T07:30:36;2.13;;;1.43;;
14276;SDS011;7222;57.346;12.150;2022-11-21T07:33:03;1.10;;;1.10;;
14276;SDS011;7222;57.346;12.150;2022-11-21T07:35:33;1.30;;;1.23;;
14276;SDS011;7222;57.346;12.150;2022-11-21T07:38:02;1.20;;;1.10;;
14276;SDS011;7222;57.346;12.150;2022-11-21T07:40:30;1.20;;;1.07;;
14276;SDS011;7222;57.346;12.150;2022-11-21T07:42:59;1.37;;;1.27;;
14276;SDS011;7222;57.346;12.150;2022-11-21T07:45:27;1.50;;;1.30;;
14276;SDS011;7222;57.346;12.150;2022-11-21T07:47:58;1.23;;;1.13;;
14276;SDS011;7222;57.346;12.150;2022-11-21T07:50:27;2.37;;;1.40;;
14276;SDS011;7222;57.346;12.150;2022-11-21T07:52:57;1.27;;;1.20;;
14276;SDS011;7222;57.346;12.150;2022-11-21T07:55:25;1.30;;;1.20;;
14276;SDS011;7222;57.346;12.150;2022-11-21T07:57:57;2.07;;;1.50;;
14276;SDS011;7222;57.346;12.150;2022-11-21T08:00:25;1.70;;;1.60;;
14276;SDS011;7222;57.346;12.150;2022-11-21T08:02:52;2.10;;;1.43;;
14276;SDS011;7222;57.346;12.150;2022-11-21T08:05:21;2.43;;;2.07;;
14276;SDS011;7222;57.346;12.150;2022-11-21T08:07:48;1.00;;;1.00;;
14276;SDS011;7222;57.346;12.150;2022-11-21T08:10:16;1.87;;;1.40;;
14276;SDS011;7222;57.346;12.150;2022-11-21T08:12:43;1.60;;;1.50;;
14276;SDS011;7222;57.346;12.150;2022-11-21T08:15:11;1.40;;;1.30;;
14276;SDS011;7222;57.346;12.150;2022-11-21T08:17:38;1.67;;;1.37;;
14276;SDS011;7222;57.346;12.150;2022-11-21T08:20:06;1.80;;;1.20;;
14276;SDS011;7222;57.346;12.150;2022-11-21T08:22:38;1.40;;;1.30;;
14276;SDS011;7222;57.346;12.150;2022-11-21T08:25:05;1.57;;;1.27;;
14276;SDS011;7222;57.346;12.150;2022-11-21T08:27:34;1.53;;;1.40;;
14276;SDS011;7222;57.346;12.150;2022-11-21T08:30:02;1.40;;;1.30;;
14276;SDS011;7222;57.346;12.150;2022-11-21T08:32:30;1.93;;;1.57;;
14276;SDS011;7222;57.346;12.150;2022-11-21T08:34:57;1.63;;;1.33;;
14276;SDS011;7222;57.346;12.150;2022-11-21T08:37:25;1.53;;;1.43;;
14276;SDS011;7222;57.346;12.150;2022-11-21T08:39:54;1.97;;;1.50;;
14276;SDS011;7222;57.346;12.150;2022-11-21T08:42:23;1.57;;;1.43;;
14276;SDS011;7222;57.346;12.150;2022-11-21T08:44:50;1.93;;;1.83;;
14276;SDS011;7222;57.346;12.150;2022-11-21T08:47:17;1.43;;;1.33;;
14276;SDS011;7222;57.346;12.150;2022-11-21T08:49:45;1.20;;;1.10;;
14276;SDS011;7222;57.346;12.150;2022-11-21T08:52:12;1.53;;;1.43;;
14276;SDS011;7222;57.346;12.150;2022-11-21T08:54:41;1.50;;;1.40;;
14276;SDS011;7222;57.346;12.150;2022-11-21T08:57:11;1.60;;;1.50;;
14276;SDS011;7222;57.346;12.150;2022-11-21T08:59:38;1.80;;;1.70;;
14276;SDS011;7222;57.346;12.150;2022-11-21T09:02:05;1.67;;;1.57;;
14276;SDS011;7222;57.346;12.150;2022-11-21T09:04:32;1.60;;;1.50;;
14276;SDS011;7222;57.346;12.150;2022-11-21T09:06:59;1.87;;;1.70;;
14276;SDS011;7222;57.346;12.150;2022-11-21T09:09:28;1.40;;;1.30;;
14276;SDS011;7222;57.346;12.150;2022-11-21T09:11:55;2.17;;;1.70;;
14276;SDS011;7222;57.346;12.150;2022-11-21T09:14:23;1.70;;;1.60;;
14276;SDS011;7222;57.346;12.150;2022-11-21T09:17:10;2.47;;;1.70;;
14276;SDS011;7222;57.346;12.150;2022-11-21T09:20:00;1.90;;;1.70;;
14276;SDS011;7222;57.346;12.150;2022-11-21T09:22:28;1.50;;;1.30;;
14276;SDS011;7222;57.346;12.150;2022-11-21T09:24:55;2.13;;;1.93;;
14276;SDS011;7222;57.346;12.150;2022-11-21T09:27:22;2.23;;;2.03;;
14276;SDS011;7222;57.346;12.150;2022-11-21T09:29:50;2.20;;;2.00;;
14276;SDS011;7222;57.346;12.150;2022-11-21T09:32:18;2.30;;;2.10;;
14276;SDS011;7222;57.346;12.150;2022-11-21T09:34:44;2.20;;;2.00;;
14276;SDS011;7222;57.346;12.150;2022-11-21T09:37:11;2.57;;;2.30;;
14276;SDS011;7222;57.346;12.150;2022-11-21T09:39:39;2.77;;;2.27;;
14276;SDS011;7222;57.346;12.150;2022-11-21T09:42:09;2.50;;;1.90;;
14276;SDS011;7222;57.346;12.150;2022-11-21T09:44:58;2.40;;;2.20;;
14276;SDS011;7222;57.346;12.150;2022-11-21T09:47:31;2.83;;;2.53;;
14276;SDS011;7222;57.346;12.150;2022-11-21T09:50:00;2.30;;;2.10;;
14276;SDS011;7222;57.346;12.150;2022-11-21T09:52:35;3.40;;;2.33;;
14276;SDS011;7222;57.346;12.150;2022-11-21T09:55:06;2.33;;;2.00;;
14276;SDS011;7222;57.346;12.150;2022-11-21T09:57:43;2.43;;;2.23;;
14276;SDS011;7222;57.346;12.150;2022-11-21T10:00:15;3.00;;;2.07;;
14276;SDS011;7222;57.346;12.150;2022-11-21T10:02:46;1.90;;;1.77;;
14276;SDS011;7222;57.346;12.150;2022-11-21T10:05:13;2.50;;;1.67;;
14276;SDS011;7222;57.346;12.150;2022-11-21T10:07:41;1.87;;;1.73;;
14276;SDS011;7222;57.346;12.150;2022-11-21T10:13:12;2.97;;;2.00;;
14276;SDS011;7222;57.346;12.150;2022-11-21T10:15:59;1.70;;;1.60;;
14276;SDS011;7222;57.346;12.150;2022-11-21T10:18:39;2.20;;;2.00;;
14276;SDS011;7222;57.346;12.150;2022-11-21T10:21:32;1.70;;;1.60;;
14276;SDS011;7222;57.346;12.150;2022-11-21T10:24:15;1.60;;;1.30;;
14276;SDS011;7222;57.346;12.150;2022-11-21T10:26:55;1.67;;;1.57;;
14276;SDS011;7222;57.346;12.150;2022-11-21T10:29:26;1.63;;;1.53;;
14276;SDS011;7222;57.346;12.150;2022-11-21T10:32:00;1.40;;;1.30;;
14276;SDS011;7222;57.346;12.150;2022-11-21T10:34:34;1.33;;;1.23;;
14276;SDS011;7222;57.346;12.150;2022-11-21T10:37:06;1.13;;;1.07;;
14276;SDS011;7222;57.346;12.150;2022-11-21T10:39:40;1.93;;;1.40;;
14276;SDS011;7222;57.346;12.150;2022-11-21T10:42:11;1.93;;;1.60;;
14276;SDS011;7222;57.346;12.150;2022-11-21T10:44:43;1.50;;;1.40;;
14276;SDS011;7222;57.346;12.150;2022-11-21T10:47:31;1.40;;;1.30;;
14276;SDS011;7222;57.346;12.150;2022-11-21T10:50:04;1.43;;;1.33;;
14276;SDS011;7222;57.346;12.150;2022-11-21T10:52:41;1.73;;;1.63;;
14276;SDS011;7222;57.346;12.150;2022-11-21T10:55:13;1.73;;;1.63;;
14276;SDS011;7222;57.346;12.150;2022-11-21T10:57:43;2.47;;;1.50;;
14276;SDS011;7222;57.346;12.150;2022-11-21T11:00:21;1.20;;;1.10;;
14276;SDS011;7222;57.346;12.150;2022-11-21T11:05:52;1.63;;;1.53;;
14276;SDS011;7222;57.346;12.150;2022-11-21T11:08:22;1.50;;;1.40;;
14276;SDS011;7222;57.346;12.150;2022-11-21T11:13:49;1.70;;;1.57;;
14276;SDS011;7222;57.346;12.150;2022-11-21T11:16:21;2.00;;;1.77;;
14276;SDS011;7222;57.346;12.150;2022-11-21T11:18:54;1.23;;;1.20;;
14276;SDS011;7222;57.346;12.150;2022-11-21T11:21:24;1.70;;;1.60;;
14276;SDS011;7222;57.346;12.150;2022-11-21T11:23:54;1.70;;;1.60;;
14276;SDS011;7222;57.346;12.150;2022-11-21T11:26:48;2.33;;;1.50;;
14276;SDS011;7222;57.346;12.150;2022-11-21T11:29:18;2.17;;;1.90;;
14276;SDS011;7222;57.346;12.150;2022-11-21T11:31:49;2.30;;;2.10;;
14276;SDS011;7222;57.346;12.150;2022-11-21T11:34:20;1.63;;;1.50;;
14276;SDS011;7222;57.346;12.150;2022-11-21T11:36:57;2.00;;;1.67;;
14276;SDS011;7222;57.346;12.150;2022-11-21T11:39:37;1.63;;;1.53;;
14276;SDS011;7222;57.346;12.150;2022-11-21T11:45:47;2.27;;;2.07;;
14276;SDS011;7222;57.346;12.150;2022-11-21T11:48:46;3.13;;;2.40;;
14276;SDS011;7222;57.346;12.150;2022-11-21T11:51:17;1.90;;;1.70;;
14276;SDS011;7222;57.346;12.150;2022-11-21T11:53:48;2.10;;;2.00;;
14276;SDS011;7222;57.346;12.150;2022-11-21T11:56:19;1.83;;;1.73;;
14276;SDS011;7222;57.346;12.150;2022-11-21T11:58:51;2.13;;;1.93;;
14276;SDS011;7222;57.346;12.150;2022-11-21T12:01:24;2.50;;;2.00;;
14276;SDS011;7222;57.346;12.150;2022-11-21T12:03:59;2.03;;;1.90;;
14276;SDS011;7222;57.346;12.150;2022-11-21T12:06:31;1.93;;;1.73;;
14276;SDS011;7222;57.346;12.150;2022-11-21T12:09:02;2.30;;;2.10;;
14276;SDS011;7222;57.346;12.150;2022-11-21T12:11:34;2.13;;;2.03;;
14276;SDS011;7222;57.346;12.150;2022-11-21T12:17:41;2.60;;;2.40;;
14276;SDS011;7222;57.346;12.150;2022-11-21T12:20:14;1.90;;;1.67;;
14276;SDS011;7222;57.346;12.150;2022-11-21T12:22:49;2.03;;;1.83;;
14276;SDS011;7222;57.346;12.150;2022-11-21T12:25:18;2.10;;;1.83;;
14276;SDS011;7222;57.346;12.150;2022-11-21T12:27:51;2.07;;;1.97;;
14276;SDS011;7222;57.346;12.150;2022-11-21T12:30:34;2.60;;;2.37;;
14276;SDS011;7222;57.346;12.150;2022-11-21T12:33:14;3.03;;;1.93;;
14276;SDS011;7222;57.346;12.150;2022-11-21T12:38:56;1.73;;;1.30;;
14276;SDS011;7222;57.346;12.150;2022-11-21T12:41:35;3.20;;;1.70;;
14276;SDS011;7222;57.346;12.150;2022-11-21T12:44:28;2.30;;;2.03;;
14276;SDS011;7222;57.346;12.150;2022-11-21T12:47:09;2.83;;;1.97;;
14276;SDS011;7222;57.346;12.150;2022-11-21T12:49:47;2.17;;;2.00;;
14276;SDS011;7222;57.346;12.150;2022-11-21T12:52:37;2.60;;;2.40;;
14276;SDS011;7222;57.346;12.150;2022-11-21T12:55:35;2.20;;;1.93;;
14276;SDS011;7222;57.346;12.150;2022-11-21T12:58:05;1.97;;;1.83;;
14276;SDS011;7222;57.346;12.150;2022-11-21T13:00:54;2.50;;;2.30;;
14276;SDS011;7222;57.346;12.150;2022-11-21T13:03:38;2.20;;;2.00;;
14276;SDS011;7222;57.346;12.150;2022-11-21T13:06:12;2.00;;;1.83;;
14276;SDS011;7222;57.346;12.150;2022-11-21T13:08:43;2.47;;;2.27;;
14276;SDS011;7222;57.346;12.150;2022-11-21T13:11:15;2.10;;;1.90;;
14276;SDS011;7222;57.346;12.150;2022-11-21T13:14:06;2.33;;;1.90;;
14276;SDS011;7222;57.346;12.150;2022-11-21T13:16:40;1.97;;;1.73;;
14276;SDS011;7222;57.346;12.150;2022-11-21T13:19:16;2.13;;;2.00;;
14276;SDS011;7222;57.346;12.150;2022-11-21T13:21:48;3.10;;;2.00;;
14276;SDS011;7222;57.346;12.150;2022-11-21T13:27:25;2.10;;;1.90;;
14276;SDS011;7222;57.346;12.150;2022-11-21T13:32:47;2.90;;;2.03;;
14276;SDS011;7222;57.346;12.150;2022-11-21T13:44:46;2.30;;;2.10;;
14276;SDS011;7222;57.346;12.150;2022-11-21T13:47:28;2.30;;;2.20;;
14276;SDS011;7222;57.346;12.150;2022-11-21T13:50:16;2.60;;;1.90;;
14276;SDS011;7222;57.346;12.150;2022-11-21T13:52:57;3.07;;;2.13;;
14276;SDS011;7222;57.346;12.150;2022-11-21T13:55:37;2.53;;;2.33;;
14276;SDS011;7222;57.346;12.150;2022-11-21T13:58:18;2.10;;;1.90;;
14276;SDS011;7222;57.346;12.150;2022-11-21T14:01:07;1.93;;;1.83;;
14276;SDS011;7222;57.346;12.150;2022-11-21T14:06:50;1.53;;;1.40;;
14276;SDS011;7222;57.346;12.150;2022-11-21T14:09:21;2.40;;;2.20;;
14276;SDS011;7222;57.346;12.150;2022-11-21T14:11:56;2.20;;;2.00;;
14276;SDS011;7222;57.346;12.150;2022-11-21T14:14:30;1.90;;;1.80;;
14276;SDS011;7222;57.346;12.150;2022-11-21T14:17:18;2.20;;;2.00;;
14276;SDS011;7222;57.346;12.150;2022-11-21T14:20:14;2.77;;;1.73;;
14276;SDS011;7222;57.346;12.150;2022-11-21T14:22:46;2.17;;;1.73;;
14276;SDS011;7222;57.346;12.150;2022-11-21T14:25:22;2.07;;;1.90;;
14276;SDS011;7222;57.346;12.150;2022-11-21T14:27:52;2.33;;;2.13;;
14276;SDS011;7222;57.346;12.150;2022-11-21T14:30:26;1.80;;;1.70;;
14276;SDS011;7222;57.346;12.150;2022-11-21T14:35:53;1.87;;;1.77;;
14276;SDS011;7222;57.346;12.150;2022-11-21T14:38:23;2.00;;;1.83;;
14276;SDS011;7222;57.346;12.150;2022-11-21T14:43:59;2.07;;;1.70;;
14276;SDS011;7222;57.346;12.150;2022-11-21T14:46:32;2.30;;;1.93;;
14276;SDS011;7222;57.346;12.150;2022-11-21T14:49:15;2.07;;;1.90;;
14276;SDS011;7222;57.346;12.150;2022-11-21T14:51:51;1.93;;;1.83;;
14276;SDS011;7222;57.346;12.150;2022-11-21T14:54:24;2.00;;;1.90;;
14276;SDS011;7222;57.346;12.150;2022-11-21T14:56:55;1.97;;;1.80;;
14276;SDS011;7222;57.346;12.150;2022-11-21T14:59:25;1.90;;;1.70;;
14276;SDS011;7222;57.346;12.150;2022-11-21T15:01:56;1.73;;;1.63;;
14276;SDS011;7222;57.346;12.150;2022-11-21T15:04:29;3.00;;;1.93;;
14276;SDS011;7222;57.346;12.150;2022-11-21T15:06:58;2.67;;;2.20;;
14276;SDS011;7222;57.346;12.150;2022-11-21T15:09:25;2.17;;;1.97;;
14276;SDS011;7222;57.346;12.150;2022-11-21T15:11:54;2.27;;;2.03;;
14276;SDS011;7222;57.346;12.150;2022-11-21T15:14:26;1.80;;;1.70;;
14276;SDS011;7222;57.346;12.150;2022-11-21T15:16:58;2.03;;;1.93;;
14276;SDS011;7222;57.346;12.150;2022-11-21T15:19:29;1.80;;;1.63;;
14276;SDS011;7222;57.346;12.150;2022-11-21T15:21:58;2.03;;;1.83;;
14276;SDS011;7222;57.346;12.150;2022-11-21T15:24:38;2.03;;;1.93;;
14276;SDS011;7222;57.346;12.150;2022-11-21T15:27:22;2.07;;;1.80;;
14276;SDS011;7222;57.346;12.150;2022-11-21T15:30:00;2.30;;;2.10;;
14276;SDS011;7222;57.346;12.150;2022-11-21T15:32:28;1.80;;;1.70;;
14276;SDS011;7222;57.346;12.150;2022-11-21T15:34:57;2.53;;;1.87;;
14276;SDS011;7222;57.346;12.150;2022-11-21T15:37:24;2.30;;;2.10;;
14276;SDS011;7222;57.346;12.150;2022-11-21T15:39:51;2.20;;;2.00;;
14276;SDS011;7222;57.346;12.150;2022-11-21T15:42:35;2.30;;;2.10;;
14276;SDS011;7222;57.346;12.150;2022-11-21T15:45:05;2.57;;;1.97;;
14276;SDS011;7222;57.346;12.150;2022-11-21T15:47:47;2.40;;;2.10;;
14276;SDS011;7222;57.346;12.150;2022-11-21T15:50:16;3.27;;;2.60;;
14276;SDS011;7222;57.346;12.150;2022-11-21T15:52:43;2.97;;;2.60;;